sensor_id;sensor_type;location;lat;lon;timestamp;temperature;humidity
62795;DHT22;48836;51.378;0.102;2022-07-04T00:01:42;12.20;99.90
62795;DHT22;48836;51.378;0.102;2022-07-04T00:04:09;12.20;99.90
62795;DHT22;48836;51.378;0.102;2022-07-04T00:06:37;12.30;99.90
62795;DHT22;48836;51.378;0.102;2022-07-04T00:09:05;12.30;99.90
62795;DHT22;48836;51.378;0.102;2022-07-04T00:11:32;12.30;99.90
62795;DHT22;48836;51.378;0.102;2022-07-04T00:14:00;12.30;99.90
62795;DHT22;48836;51.378;0.102;2022-07-04T00:16:28;12.40;99.90
62795;DHT22;48836;51.378;0.102;2022-07-04T00:18:56;12.40;99.90
62795;DHT22;48836;51.378;0.102;2022-07-04T00:21:24;12.40;99.90
62795;DHT22;48836;51.378;0.102;2022-07-04T00:23:51;12.40;99.90
62795;DHT22;48836;51.378;0.102;2022-07-04T00:26:19;12.40;99.90
62795;DHT22;48836;51.378;0.102;2022-07-04T00:28:47;12.40;99.90
62795;DHT22;48836;51.378;0.102;2022-07-04T00:31:14;12.40;99.90
62795;DHT22;48836;51.378;0.102;2022-07-04T00:33:42;12.50;99.90
62795;DHT22;48836;51.378;0.102;2022-07-04T00:36:10;12.50;99.90
62795;DHT22;48836;51.378;0.102;2022-07-04T00:38:37;12.50;99.90
62795;DHT22;48836;51.378;0.102;2022-07-04T00:41:05;12.50;99.90
62795;DHT22;48836;51.378;0.102;2022-07-04T00:43:33;12.50;99.90
62795;DHT22;48836;51.378;0.102;2022-07-04T00:46:20;12.60;99.90
62795;DHT22;48836;51.378;0.102;2022-07-04T00:48:48;12.60;99.90
62795;DHT22;48836;51.378;0.102;2022-07-04T00:51:17;12.60;99.90
62795;DHT22;48836;51.378;0.102;2022-07-04T00:53:45;12.60;99.90
62795;DHT22;48836;51.378;0.102;2022-07-04T00:56:13;12.60;99.90
62795;DHT22;48836;51.378;0.102;2022-07-04T00:58:40;12.60;99.90
62795;DHT22;48836;51.378;0.102;2022-07-04T01:01:08;12.60;99.90
62795;DHT22;48836;51.378;0.102;2022-07-04T01:03:36;12.70;99.90
62795;DHT22;48836;51.378;0.102;2022-07-04T01:06:03;12.70;99.90
62795;DHT22;48836;51.378;0.102;2022-07-04T01:08:31;12.70;99.90
62795;DHT22;48836;51.378;0.102;2022-07-04T01:10:59;12.70;99.90
62795;DHT22;48836;51.378;0.102;2022-07-04T01:13:27;12.70;99.90
62795;DHT22;48836;51.378;0.102;2022-07-04T01:15:54;12.70;99.90
62795;DHT22;48836;51.378;0.102;2022-07-04T01:18:23;12.80;99.90
62795;DHT22;48836;51.378;0.102;2022-07-04T01:20:50;12.80;99.90
62795;DHT22;48836;51.378;0.102;2022-07-04T01:23:18;12.90;99.90
62795;DHT22;48836;51.378;0.102;2022-07-04T01:25:46;12.90;99.90
62795;DHT22;48836;51.378;0.102;2022-07-04T01:28:17;12.90;99.90
62795;DHT22;48836;51.378;0.102;2022-07-04T01:30:45;12.90;99.90
62795;DHT22;48836;51.378;0.102;2022-07-04T01:33:13;12.90;99.90
62795;DHT22;48836;51.378;0.102;2022-07-04T01:35:41;13.00;99.90
62795;DHT22;48836;51.378;0.102;2022-07-04T01:38:08;12.90;99.90
62795;DHT22;48836;51.378;0.102;2022-07-04T01:40:36;13.00;99.90
62795;DHT22;48836;51.378;0.102;2022-07-04T01:43:04;13.00;99.90
62795;DHT22;48836;51.378;0.102;2022-07-04T01:45:32;13.00;99.90
62795;DHT22;48836;51.378;0.102;2022-07-04T01:48:01;13.00;99.90
62795;DHT22;48836;51.378;0.102;2022-07-04T01:50:28;12.90;99.90
62795;DHT22;48836;51.378;0.102;2022-07-04T01:52:56;12.90;99.90
62795;DHT22;48836;51.378;0.102;2022-07-04T01:55:24;12.90;99.90
62795;DHT22;48836;51.378;0.102;2022-07-04T01:57:52;12.80;99.90
62795;DHT22;48836;51.378;0.102;2022-07-04T02:00:19;12.80;99.90
62795;DHT22;48836;51.378;0.102;2022-07-04T02:03:05;12.70;99.90
62795;DHT22;48836;51.378;0.102;2022-07-04T02:05:33;12.60;99.90
62795;DHT22;48836;51.378;0.102;2022-07-04T02:08:00;12.50;99.90
62795;DHT22;48836;51.378;0.102;2022-07-04T02:10:28;12.40;99.90
62795;DHT22;48836;51.378;0.102;2022-07-04T02:12:56;12.30;99.90
62795;DHT22;48836;51.378;0.102;2022-07-04T02:15:40;12.30;99.90
62795;DHT22;48836;51.378;0.102;2022-07-04T02:18:10;12.20;99.90
62795;DHT22;48836;51.378;0.102;2022-07-04T02:20:37;12.20;99.90
62795;DHT22;48836;51.378;0.102;2022-07-04T02:23:05;12.30;99.90
62795;DHT22;48836;51.378;0.102;2022-07-04T02:25:33;12.30;99.90
62795;DHT22;48836;51.378;0.102;2022-07-04T02:28:01;12.30;99.90
62795;DHT22;48836;51.378;0.102;2022-07-04T02:30:28;12.30;99.90
62795;DHT22;48836;51.378;0.102;2022-07-04T02:32:56;12.30;99.90
62795;DHT22;48836;51.378;0.102;2022-07-04T02:35:23;12.20;99.90
62795;DHT22;48836;51.378;0.102;2022-07-04T02:37:51;12.20;99.90
62795;DHT22;48836;51.378;0.102;2022-07-04T02:40:19;12.20;99.90
62795;DHT22;48836;51.378;0.102;2022-07-04T02:42:46;12.20;99.90
62795;DHT22;48836;51.378;0.102;2022-07-04T02:45:14;12.10;99.90
62795;DHT22;48836;51.378;0.102;2022-07-04T02:47:42;12.10;99.90
62795;DHT22;48836;51.378;0.102;2022-07-04T02:50:09;12.10;99.90
62795;DHT22;48836;51.378;0.102;2022-07-04T02:52:37;12.20;99.90
62795;DHT22;48836;51.378;0.102;2022-07-04T02:55:05;12.20;99.90
62795;DHT22;48836;51.378;0.102;2022-07-04T02:57:33;12.30;99.90
62795;DHT22;48836;51.378;0.102;2022-07-04T03:00:05;12.30;99.90
62795;DHT22;48836;51.378;0.102;2022-07-04T03:02:33;12.30;99.90
62795;DHT22;48836;51.378;0.102;2022-07-04T03:05:00;12.30;99.90
62795;DHT22;48836;51.378;0.102;2022-07-04T03:07:28;12.30;99.90
62795;DHT22;48836;51.378;0.102;2022-07-04T03:09:55;12.30;99.90
62795;DHT22;48836;51.378;0.102;2022-07-04T03:12:23;12.30;99.90
62795;DHT22;48836;51.378;0.102;2022-07-04T03:14:51;12.40;99.90
62795;DHT22;48836;51.378;0.102;2022-07-04T03:17:21;12.40;99.90
62795;DHT22;48836;51.378;0.102;2022-07-04T03:19:48;12.40;99.90
62795;DHT22;48836;51.378;0.102;2022-07-04T03:22:16;12.40;99.90
62795;DHT22;48836;51.378;0.102;2022-07-04T03:24:44;12.40;99.90
62795;DHT22;48836;51.378;0.102;2022-07-04T03:27:12;12.50;99.90
62795;DHT22;48836;51.378;0.102;2022-07-04T03:29:40;12.50;99.90
62795;DHT22;48836;51.378;0.102;2022-07-04T03:32:08;12.50;99.90
62795;DHT22;48836;51.378;0.102;2022-07-04T03:34:35;12.60;99.90
62795;DHT22;48836;51.378;0.102;2022-07-04T03:37:03;12.60;99.90
62795;DHT22;48836;51.378;0.102;2022-07-04T03:39:31;12.60;99.90
62795;DHT22;48836;51.378;0.102;2022-07-04T03:41:59;12.70;99.90
62795;DHT22;48836;51.378;0.102;2022-07-04T03:44:26;12.70;99.90
62795;DHT22;48836;51.378;0.102;2022-07-04T03:46:54;12.70;99.90
62795;DHT22;48836;51.378;0.102;2022-07-04T03:49:21;12.70;99.90
62795;DHT22;48836;51.378;0.102;2022-07-04T03:51:49;12.80;99.90
62795;DHT22;48836;51.378;0.102;2022-07-04T03:54:17;12.80;99.90
62795;DHT22;48836;51.378;0.102;2022-07-04T03:56:44;12.80;99.90
62795;DHT22;48836;51.378;0.102;2022-07-04T03:59:12;12.80;99.90
62795;DHT22;48836;51.378;0.102;2022-07-04T04:01:40;12.80;99.90
62795;DHT22;48836;51.378;0.102;2022-07-04T04:04:09;12.80;99.90
62795;DHT22;48836;51.378;0.102;2022-07-04T04:06:55;12.90;99.90
62795;DHT22;48836;51.378;0.102;2022-07-04T04:09:22;12.90;99.90
62795;DHT22;48836;51.378;0.102;2022-07-04T04:11:52;12.80;99.90
62795;DHT22;48836;51.378;0.102;2022-07-04T04:14:19;12.90;99.90
62795;DHT22;48836;51.378;0.102;2022-07-04T04:16:47;12.90;99.90
62795;DHT22;48836;51.378;0.102;2022-07-04T04:19:15;12.90;99.90
62795;DHT22;48836;51.378;0.102;2022-07-04T04:21:42;12.90;99.90
62795;DHT22;48836;51.378;0.102;2022-07-04T04:24:10;12.90;99.90
62795;DHT22;48836;51.378;0.102;2022-07-04T04:26:38;12.90;99.90
62795;DHT22;48836;51.378;0.102;2022-07-04T04:29:05;12.90;99.90
62795;DHT22;48836;51.378;0.102;2022-07-04T04:31:33;12.90;99.90
62795;DHT22;48836;51.378;0.102;2022-07-04T04:34:01;12.90;99.90
62795;DHT22;48836;51.378;0.102;2022-07-04T04:36:28;12.90;99.90
62795;DHT22;48836;51.378;0.102;2022-07-04T04:38:56;12.90;99.90
62795;DHT22;48836;51.378;0.102;2022-07-04T04:41:23;12.90;99.90
62795;DHT22;48836;51.378;0.102;2022-07-04T04:43:51;12.90;99.90
62795;DHT22;48836;51.378;0.102;2022-07-04T04:46:20;12.90;99.90
62795;DHT22;48836;51.378;0.102;2022-07-04T04:48:48;12.90;99.90
62795;DHT22;48836;51.378;0.102;2022-07-04T04:51:15;12.90;99.90
62795;DHT22;48836;51.378;0.102;2022-07-04T04:53:43;13.00;99.90
62795;DHT22;48836;51.378;0.102;2022-07-04T04:56:11;13.00;99.90
62795;DHT22;48836;51.378;0.102;2022-07-04T04:58:38;12.90;99.90
62795;DHT22;48836;51.378;0.102;2022-07-04T05:01:07;13.00;99.90
62795;DHT22;48836;51.378;0.102;2022-07-04T05:03:55;13.00;99.90
62795;DHT22;48836;51.378;0.102;2022-07-04T05:06:22;13.00;99.90
62795;DHT22;48836;51.378;0.102;2022-07-04T05:08:50;13.00;99.90
62795;DHT22;48836;51.378;0.102;2022-07-04T05:11:18;13.10;99.90
62795;DHT22;48836;51.378;0.102;2022-07-04T05:13:45;13.10;99.90
62795;DHT22;48836;51.378;0.102;2022-07-04T05:16:13;13.10;99.90
62795;DHT22;48836;51.378;0.102;2022-07-04T05:18:41;13.10;99.90
62795;DHT22;48836;51.378;0.102;2022-07-04T05:21:08;13.10;99.90
62795;DHT22;48836;51.378;0.102;2022-07-04T05:23:36;13.10;99.90
62795;DHT22;48836;51.378;0.102;2022-07-04T05:26:04;13.10;99.90
62795;DHT22;48836;51.378;0.102;2022-07-04T05:28:31;13.10;99.90
62795;DHT22;48836;51.378;0.102;2022-07-04T05:30:59;13.10;99.90
62795;DHT22;48836;51.378;0.102;2022-07-04T05:33:26;13.20;99.90
62795;DHT22;48836;51.378;0.102;2022-07-04T05:35:54;13.20;99.90
62795;DHT22;48836;51.378;0.102;2022-07-04T05:38:22;13.20;99.90
62795;DHT22;48836;51.378;0.102;2022-07-04T05:40:49;13.20;99.90
62795;DHT22;48836;51.378;0.102;2022-07-04T05:43:17;13.20;99.90
62795;DHT22;48836;51.378;0.102;2022-07-04T05:45:45;13.30;99.90
62795;DHT22;48836;51.378;0.102;2022-07-04T05:48:12;13.30;99.90
62795;DHT22;48836;51.378;0.102;2022-07-04T05:50:40;13.30;99.90
62795;DHT22;48836;51.378;0.102;2022-07-04T05:53:08;13.40;99.90
62795;DHT22;48836;51.378;0.102;2022-07-04T05:55:35;13.40;99.90
62795;DHT22;48836;51.378;0.102;2022-07-04T05:58:03;13.40;99.90
62795;DHT22;48836;51.378;0.102;2022-07-04T06:00:31;13.50;99.90
62795;DHT22;48836;51.378;0.102;2022-07-04T06:02:58;13.50;99.90
62795;DHT22;48836;51.378;0.102;2022-07-04T06:05:26;13.50;99.90
62795;DHT22;48836;51.378;0.102;2022-07-04T06:07:54;13.60;99.90
62795;DHT22;48836;51.378;0.102;2022-07-04T06:10:21;13.60;99.90
62795;DHT22;48836;51.378;0.102;2022-07-04T06:12:49;13.70;99.90
62795;DHT22;48836;51.378;0.102;2022-07-04T06:15:17;13.80;99.90
62795;DHT22;48836;51.378;0.102;2022-07-04T06:17:45;13.80;99.90
62795;DHT22;48836;51.378;0.102;2022-07-04T06:20:12;13.90;99.90
62795;DHT22;48836;51.378;0.102;2022-07-04T06:22:45;14.00;99.90
62795;DHT22;48836;51.378;0.102;2022-07-04T06:25:14;14.00;99.90
62795;DHT22;48836;51.378;0.102;2022-07-04T06:27:42;14.00;99.90
62795;DHT22;48836;51.378;0.102;2022-07-04T06:30:11;14.10;99.90
62795;DHT22;48836;51.378;0.102;2022-07-04T06:32:55;14.10;99.90
62795;DHT22;48836;51.378;0.102;2022-07-04T06:35:29;14.20;99.90
62795;DHT22;48836;51.378;0.102;2022-07-04T06:40:41;14.30;99.90
62795;DHT22;48836;51.378;0.102;2022-07-04T06:43:09;14.40;99.90
62795;DHT22;48836;51.378;0.102;2022-07-04T06:45:37;14.40;99.90
62795;DHT22;48836;51.378;0.102;2022-07-04T06:48:05;14.40;99.90
62795;DHT22;48836;51.378;0.102;2022-07-04T06:50:34;14.40;99.90
62795;DHT22;48836;51.378;0.102;2022-07-04T06:53:08;14.50;99.90
62795;DHT22;48836;51.378;0.102;2022-07-04T06:55:37;14.50;99.90
62795;DHT22;48836;51.378;0.102;2022-07-04T06:58:05;14.40;99.90
62795;DHT22;48836;51.378;0.102;2022-07-04T07:00:34;14.40;99.90
62795;DHT22;48836;51.378;0.102;2022-07-04T07:03:03;14.40;99.90
62795;DHT22;48836;51.378;0.102;2022-07-04T07:05:31;14.30;99.90
62795;DHT22;48836;51.378;0.102;2022-07-04T07:08:19;14.30;99.90
62795;DHT22;48836;51.378;0.102;2022-07-04T07:10:46;14.20;99.90
62795;DHT22;48836;51.378;0.102;2022-07-04T07:13:14;14.20;99.90
62795;DHT22;48836;51.378;0.102;2022-07-04T07:15:42;14.10;99.90
62795;DHT22;48836;51.378;0.102;2022-07-04T07:18:09;14.10;99.90
62795;DHT22;48836;51.378;0.102;2022-07-04T07:20:37;14.10;99.90
62795;DHT22;48836;51.378;0.102;2022-07-04T07:23:05;14.20;99.90
62795;DHT22;48836;51.378;0.102;2022-07-04T07:25:33;14.30;99.90
62795;DHT22;48836;51.378;0.102;2022-07-04T07:28:01;14.30;99.90
62795;DHT22;48836;51.378;0.102;2022-07-04T07:30:28;14.40;99.90
62795;DHT22;48836;51.378;0.102;2022-07-04T07:32:56;14.40;99.90
62795;DHT22;48836;51.378;0.102;2022-07-04T07:35:24;14.40;99.90
62795;DHT22;48836;51.378;0.102;2022-07-04T07:37:51;14.50;99.90
62795;DHT22;48836;51.378;0.102;2022-07-04T07:40:19;14.50;99.90
62795;DHT22;48836;51.378;0.102;2022-07-04T07:42:47;14.50;99.90
62795;DHT22;48836;51.378;0.102;2022-07-04T07:45:14;14.60;99.90
62795;DHT22;48836;51.378;0.102;2022-07-04T07:47:42;14.60;99.90
62795;DHT22;48836;51.378;0.102;2022-07-04T07:50:09;14.70;99.90
62795;DHT22;48836;51.378;0.102;2022-07-04T07:52:37;14.80;99.90
62795;DHT22;48836;51.378;0.102;2022-07-04T07:55:05;14.80;99.90
62795;DHT22;48836;51.378;0.102;2022-07-04T07:57:34;14.80;99.90
62795;DHT22;48836;51.378;0.102;2022-07-04T08:00:03;14.90;99.90
62795;DHT22;48836;51.378;0.102;2022-07-04T08:02:39;14.90;99.90
62795;DHT22;48836;51.378;0.102;2022-07-04T08:05:25;14.90;99.90
62795;DHT22;48836;51.378;0.102;2022-07-04T08:07:52;14.90;99.90
62795;DHT22;48836;51.378;0.102;2022-07-04T08:10:20;14.90;99.90
62795;DHT22;48836;51.378;0.102;2022-07-04T08:12:47;14.90;99.90
62795;DHT22;48836;51.378;0.102;2022-07-04T08:15:15;14.90;99.90
62795;DHT22;48836;51.378;0.102;2022-07-04T08:17:43;14.90;99.90
62795;DHT22;48836;51.378;0.102;2022-07-04T08:20:11;15.00;99.90
62795;DHT22;48836;51.378;0.102;2022-07-04T08:22:39;15.00;99.90
62795;DHT22;48836;51.378;0.102;2022-07-04T08:25:07;15.00;99.90
62795;DHT22;48836;51.378;0.102;2022-07-04T08:27:35;15.10;99.90
62795;DHT22;48836;51.378;0.102;2022-07-04T08:30:02;15.20;99.90
62795;DHT22;48836;51.378;0.102;2022-07-04T08:32:30;15.40;99.90
62795;DHT22;48836;51.378;0.102;2022-07-04T08:34:58;15.60;99.90
62795;DHT22;48836;51.378;0.102;2022-07-04T08:37:26;15.80;99.90
62795;DHT22;48836;51.378;0.102;2022-07-04T08:39:54;16.00;99.90
62795;DHT22;48836;51.378;0.102;2022-07-04T08:42:22;16.30;99.90
62795;DHT22;48836;51.378;0.102;2022-07-04T08:44:51;16.60;99.90
62795;DHT22;48836;51.378;0.102;2022-07-04T08:47:21;17.00;99.90
62795;DHT22;48836;51.378;0.102;2022-07-04T08:52:42;17.30;99.90
62795;DHT22;48836;51.378;0.102;2022-07-04T08:55:12;17.40;99.90
62795;DHT22;48836;51.378;0.102;2022-07-04T08:57:58;17.50;99.90
62795;DHT22;48836;51.378;0.102;2022-07-04T09:00:45;17.50;99.90
62795;DHT22;48836;51.378;0.102;2022-07-04T09:03:13;17.50;99.90
62795;DHT22;48836;51.378;0.102;2022-07-04T09:05:41;17.50;99.90
62795;DHT22;48836;51.378;0.102;2022-07-04T09:08:08;17.50;99.90
62795;DHT22;48836;51.378;0.102;2022-07-04T09:10:36;17.50;99.90
62795;DHT22;48836;51.378;0.102;2022-07-04T09:13:06;17.60;99.90
62795;DHT22;48836;51.378;0.102;2022-07-04T09:15:40;17.80;99.90
62795;DHT22;48836;51.378;0.102;2022-07-04T09:20:56;17.70;99.90
62795;DHT22;48836;51.378;0.102;2022-07-04T09:23:28;17.60;99.90
62795;DHT22;48836;51.378;0.102;2022-07-04T09:26:20;17.60;99.90
62795;DHT22;48836;51.378;0.102;2022-07-04T09:28:54;17.50;99.90
62795;DHT22;48836;51.378;0.102;2022-07-04T09:31:27;17.40;99.90
62795;DHT22;48836;51.378;0.102;2022-07-04T09:33:57;17.40;99.90
62795;DHT22;48836;51.378;0.102;2022-07-04T09:36:29;17.50;99.90
62795;DHT22;48836;51.378;0.102;2022-07-04T09:39:17;17.60;99.90
62795;DHT22;48836;51.378;0.102;2022-07-04T09:44:17;17.60;99.90
62795;DHT22;48836;51.378;0.102;2022-07-04T09:46:45;17.70;99.90
62795;DHT22;48836;51.378;0.102;2022-07-04T09:49:13;17.70;99.90
62795;DHT22;48836;51.378;0.102;2022-07-04T09:51:49;17.80;99.90
62795;DHT22;48836;51.378;0.102;2022-07-04T09:54:27;17.80;99.90
62795;DHT22;48836;51.378;0.102;2022-07-04T09:57:01;17.80;99.90
62795;DHT22;48836;51.378;0.102;2022-07-04T09:59:30;17.70;99.90
62795;DHT22;48836;51.378;0.102;2022-07-04T10:02:11;17.70;99.90
62795;DHT22;48836;51.378;0.102;2022-07-04T10:04:58;17.60;99.90
62795;DHT22;48836;51.378;0.102;2022-07-04T10:07:34;17.70;99.90
62795;DHT22;48836;51.378;0.102;2022-07-04T10:10:27;17.90;99.90
62795;DHT22;48836;51.378;0.102;2022-07-04T10:12:58;18.00;99.90
62795;DHT22;48836;51.378;0.102;2022-07-04T10:15:26;18.10;99.90
62795;DHT22;48836;51.378;0.102;2022-07-04T10:17:54;17.90;99.90
62795;DHT22;48836;51.378;0.102;2022-07-04T10:20:22;17.70;99.90
62795;DHT22;48836;51.378;0.102;2022-07-04T10:22:50;17.70;99.90
62795;DHT22;48836;51.378;0.102;2022-07-04T10:25:18;17.70;99.90
62795;DHT22;48836;51.378;0.102;2022-07-04T10:27:46;17.90;99.50
62795;DHT22;48836;51.378;0.102;2022-07-04T10:30:21;18.20;99.70
62795;DHT22;48836;51.378;0.102;2022-07-04T10:32:50;18.50;91.00
62795;DHT22;48836;51.378;0.102;2022-07-04T10:38:19;18.80;81.40
62795;DHT22;48836;51.378;0.102;2022-07-04T10:40:55;18.80;77.70
62795;DHT22;48836;51.378;0.102;2022-07-04T10:48:50;18.60;80.90
62795;DHT22;48836;51.378;0.102;2022-07-04T10:51:47;18.50;80.40
62795;DHT22;48836;51.378;0.102;2022-07-04T10:54:18;18.50;74.10
62795;DHT22;48836;51.378;0.102;2022-07-04T10:59:38;18.80;79.70
62795;DHT22;48836;51.378;0.102;2022-07-04T11:18:04;18.90;69.20
62795;DHT22;48836;51.378;0.102;2022-07-04T11:20:36;18.70;70.50
62795;DHT22;48836;51.378;0.102;2022-07-04T11:23:16;18.90;71.80
62795;DHT22;48836;51.378;0.102;2022-07-04T11:25:47;19.20;74.50
62795;DHT22;48836;51.378;0.102;2022-07-04T11:28:24;19.40;67.30
62795;DHT22;48836;51.378;0.102;2022-07-04T11:31:13;19.30;67.20
62795;DHT22;48836;51.378;0.102;2022-07-04T11:33:43;19.10;66.20
62795;DHT22;48836;51.378;0.102;2022-07-04T11:38:57;19.00;72.30
62795;DHT22;48836;51.378;0.102;2022-07-04T11:41:35;19.20;66.70
62795;DHT22;48836;51.378;0.102;2022-07-04T11:44:26;19.10;68.30
62795;DHT22;48836;51.378;0.102;2022-07-04T11:47:22;19.20;71.80
62795;DHT22;48836;51.378;0.102;2022-07-04T11:49:52;19.30;64.40
62795;DHT22;48836;51.378;0.102;2022-07-04T11:52:22;19.30;66.30
62795;DHT22;48836;51.378;0.102;2022-07-04T11:55:20;19.30;72.60
62795;DHT22;48836;51.378;0.102;2022-07-04T11:57:50;19.20;74.10
62795;DHT22;48836;51.378;0.102;2022-07-04T12:00:21;19.10;74.30
62795;DHT22;48836;51.378;0.102;2022-07-04T12:02:52;19.10;74.90
62795;DHT22;48836;51.378;0.102;2022-07-04T12:05:20;19.30;80.70
62795;DHT22;48836;51.378;0.102;2022-07-04T12:07:48;19.50;72.20
62795;DHT22;48836;51.378;0.102;2022-07-04T12:10:36;19.70;71.80
62795;DHT22;48836;51.378;0.102;2022-07-04T12:13:06;19.90;61.60
62795;DHT22;48836;51.378;0.102;2022-07-04T12:15:49;19.80;64.70
62795;DHT22;48836;51.378;0.102;2022-07-04T12:20:47;20.30;67.20
62795;DHT22;48836;51.378;0.102;2022-07-04T12:23:17;20.60;59.10
62795;DHT22;48836;51.378;0.102;2022-07-04T12:25:47;20.70;58.00
62795;DHT22;48836;51.378;0.102;2022-07-04T12:28:16;20.60;58.80
62795;DHT22;48836;51.378;0.102;2022-07-04T12:30:57;20.50;59.20
62795;DHT22;48836;51.378;0.102;2022-07-04T12:33:27;20.50;59.40
62795;DHT22;48836;51.378;0.102;2022-07-04T12:36:00;20.70;59.10
62795;DHT22;48836;51.378;0.102;2022-07-04T12:38:36;20.90;57.90
62795;DHT22;48836;51.378;0.102;2022-07-04T12:41:10;21.00;56.80
62795;DHT22;48836;51.378;0.102;2022-07-04T12:48:53;20.90;57.60
62795;DHT22;48836;51.378;0.102;2022-07-04T12:51:32;20.70;58.60
62795;DHT22;48836;51.378;0.102;2022-07-04T12:54:08;20.40;60.50
62795;DHT22;48836;51.378;0.102;2022-07-04T12:56:38;20.20;64.50
62795;DHT22;48836;51.378;0.102;2022-07-04T12:59:12;20.10;68.10
62795;DHT22;48836;51.378;0.102;2022-07-04T13:01:42;20.10;65.90
62795;DHT22;48836;51.378;0.102;2022-07-04T13:04:11;20.10;65.90
62795;DHT22;48836;51.378;0.102;2022-07-04T13:06:39;19.90;69.00
62795;DHT22;48836;51.378;0.102;2022-07-04T13:09:07;20.10;74.80
62795;DHT22;48836;51.378;0.102;2022-07-04T13:11:35;20.50;69.70
62795;DHT22;48836;51.378;0.102;2022-07-04T13:14:22;20.80;65.70
62795;DHT22;48836;51.378;0.102;2022-07-04T13:16:50;21.00;62.50
62795;DHT22;48836;51.378;0.102;2022-07-04T13:19:17;21.20;58.90
62795;DHT22;48836;51.378;0.102;2022-07-04T13:21:45;21.60;54.90
62795;DHT22;48836;51.378;0.102;2022-07-04T13:24:15;21.60;54.30
62795;DHT22;48836;51.378;0.102;2022-07-04T13:26:43;21.30;54.50
62795;DHT22;48836;51.378;0.102;2022-07-04T13:29:10;20.90;56.40
62795;DHT22;48836;51.378;0.102;2022-07-04T13:31:39;20.60;58.20
62795;DHT22;48836;51.378;0.102;2022-07-04T13:34:07;20.40;59.80
62795;DHT22;48836;51.378;0.102;2022-07-04T13:36:35;20.20;61.60
62795;DHT22;48836;51.378;0.102;2022-07-04T13:39:03;20.10;64.50
62795;DHT22;48836;51.378;0.102;2022-07-04T13:41:33;20.20;65.30
62795;DHT22;48836;51.378;0.102;2022-07-04T13:44:03;20.50;64.50
62795;DHT22;48836;51.378;0.102;2022-07-04T13:46:32;20.90;63.30
62795;DHT22;48836;51.378;0.102;2022-07-04T13:49:04;21.20;59.10
62795;DHT22;48836;51.378;0.102;2022-07-04T13:51:40;21.40;58.10
62795;DHT22;48836;51.378;0.102;2022-07-04T13:54:09;21.60;55.70
62795;DHT22;48836;51.378;0.102;2022-07-04T13:56:37;21.50;54.60
62795;DHT22;48836;51.378;0.102;2022-07-04T13:59:04;21.20;55.10
62795;DHT22;48836;51.378;0.102;2022-07-04T14:01:32;21.00;56.00
62795;DHT22;48836;51.378;0.102;2022-07-04T14:04:00;20.80;56.70
62795;DHT22;48836;51.378;0.102;2022-07-04T14:06:28;20.80;57.00
62795;DHT22;48836;51.378;0.102;2022-07-04T14:08:56;21.00;55.50
62795;DHT22;48836;51.378;0.102;2022-07-04T14:11:24;21.00;55.50
62795;DHT22;48836;51.378;0.102;2022-07-04T14:13:51;21.10;55.20
62795;DHT22;48836;51.378;0.102;2022-07-04T14:16:19;21.50;55.90
62795;DHT22;48836;51.378;0.102;2022-07-04T14:18:47;22.00;56.00
62795;DHT22;48836;51.378;0.102;2022-07-04T14:21:15;22.50;54.20
62795;DHT22;48836;51.378;0.102;2022-07-04T14:23:42;22.70;51.90
62795;DHT22;48836;51.378;0.102;2022-07-04T14:26:14;22.70;50.30
62795;DHT22;48836;51.378;0.102;2022-07-04T14:28:43;22.40;51.10
62795;DHT22;48836;51.378;0.102;2022-07-04T14:31:14;21.90;51.40
62795;DHT22;48836;51.378;0.102;2022-07-04T14:33:42;21.50;52.10
62795;DHT22;48836;51.378;0.102;2022-07-04T14:36:09;21.40;52.60
62795;DHT22;48836;51.378;0.102;2022-07-04T14:38:38;21.30;53.30
62795;DHT22;48836;51.378;0.102;2022-07-04T14:41:06;21.10;53.60
62795;DHT22;48836;51.378;0.102;2022-07-04T14:43:40;21.00;54.30
62795;DHT22;48836;51.378;0.102;2022-07-04T14:46:09;20.80;55.00
62795;DHT22;48836;51.378;0.102;2022-07-04T14:48:38;20.70;54.80
62795;DHT22;48836;51.378;0.102;2022-07-04T14:51:05;20.50;55.50
62795;DHT22;48836;51.378;0.102;2022-07-04T14:53:34;20.40;56.00
62795;DHT22;48836;51.378;0.102;2022-07-04T14:56:02;20.40;56.20
62795;DHT22;48836;51.378;0.102;2022-07-04T14:58:30;20.70;55.60
62795;DHT22;48836;51.378;0.102;2022-07-04T15:00:57;21.10;56.20
62795;DHT22;48836;51.378;0.102;2022-07-04T15:03:25;21.30;54.40
62795;DHT22;48836;51.378;0.102;2022-07-04T15:05:53;21.60;53.60
62795;DHT22;48836;51.378;0.102;2022-07-04T15:08:20;21.50;52.90
62795;DHT22;48836;51.378;0.102;2022-07-04T15:10:48;21.30;52.40
62795;DHT22;48836;51.378;0.102;2022-07-04T15:13:36;21.00;53.00
62795;DHT22;48836;51.378;0.102;2022-07-04T15:16:04;20.90;53.30
62795;DHT22;48836;51.378;0.102;2022-07-04T15:18:52;20.80;53.40
62795;DHT22;48836;51.378;0.102;2022-07-04T15:21:20;20.90;53.80
62795;DHT22;48836;51.378;0.102;2022-07-04T15:24:06;21.40;54.00
62795;DHT22;48836;51.378;0.102;2022-07-04T15:26:47;21.80;53.80
62795;DHT22;48836;51.378;0.102;2022-07-04T15:29:18;21.80;52.10
62795;DHT22;48836;51.378;0.102;2022-07-04T15:31:46;21.60;52.30
62795;DHT22;48836;51.378;0.102;2022-07-04T15:34:15;21.50;52.50
62795;DHT22;48836;51.378;0.102;2022-07-04T15:36:43;21.90;52.50
62795;DHT22;48836;51.378;0.102;2022-07-04T15:39:13;22.10;52.20
62795;DHT22;48836;51.378;0.102;2022-07-04T15:41:42;22.50;51.70
62795;DHT22;48836;51.378;0.102;2022-07-04T15:44:11;22.50;50.10
62795;DHT22;48836;51.378;0.102;2022-07-04T15:46:39;22.10;49.80
62795;DHT22;48836;51.378;0.102;2022-07-04T15:49:27;22.20;50.50
62795;DHT22;48836;51.378;0.102;2022-07-04T15:51:54;22.60;49.90
62795;DHT22;48836;51.378;0.102;2022-07-04T15:54:22;22.50;49.50
62795;DHT22;48836;51.378;0.102;2022-07-04T15:56:50;22.60;49.50
62795;DHT22;48836;51.378;0.102;2022-07-04T15:59:18;23.00;49.90
62795;DHT22;48836;51.378;0.102;2022-07-04T16:01:45;23.40;48.70
62795;DHT22;48836;51.378;0.102;2022-07-04T16:04:13;23.70;48.40
62795;DHT22;48836;51.378;0.102;2022-07-04T16:06:41;24.00;46.80
62795;DHT22;48836;51.378;0.102;2022-07-04T16:09:09;24.10;45.40
62795;DHT22;48836;51.378;0.102;2022-07-04T16:11:39;23.60;45.90
62795;DHT22;48836;51.378;0.102;2022-07-04T16:14:09;22.90;46.80
62795;DHT22;48836;51.378;0.102;2022-07-04T16:16:37;22.40;47.60
62795;DHT22;48836;51.378;0.102;2022-07-04T16:19:04;22.00;48.20
62795;DHT22;48836;51.378;0.102;2022-07-04T16:21:38;22.20;48.30
62795;DHT22;48836;51.378;0.102;2022-07-04T16:24:07;22.20;47.90
62795;DHT22;48836;51.378;0.102;2022-07-04T16:26:34;22.00;47.70
62795;DHT22;48836;51.378;0.102;2022-07-04T16:29:03;21.70;48.30
62795;DHT22;48836;51.378;0.102;2022-07-04T16:31:33;21.70;48.70
62795;DHT22;48836;51.378;0.102;2022-07-04T16:34:01;22.20;49.20
62795;DHT22;48836;51.378;0.102;2022-07-04T16:36:28;23.10;46.90